createdAt,value
2022-09-01T00:04:05.028Z,100.00
2022-09-01T00:14:30.085Z,100.00
2022-09-01T00:24:32.923Z,100.00
2022-09-01T00:34:35.371Z,100.00
2022-09-01T00:44:39.298Z,100.00
2022-09-01T00:54:46.269Z,100.00
2022-09-01T01:04:48.757Z,100.00
2022-09-01T01:14:51.584Z,100.00
2022-09-01T01:24:53.906Z,100.00
2022-09-01T01:34:58.178Z,100.00
2022-09-01T01:45:00.388Z,100.00
2022-09-01T01:55:05.219Z,100.00
2022-09-01T02:05:08.638Z,100.00
2022-09-01T02:15:13.309Z,100.00
2022-09-01T02:25:17.146Z,100.00
2022-09-01T02:35:19.567Z,100.00
2022-09-01T02:45:22.441Z,100.00
2022-09-01T02:55:25.131Z,100.00
2022-09-01T03:05:30.447Z,100.00
2022-09-01T03:15:34.153Z,100.00
2022-09-01T03:25:37.160Z,100.00
2022-09-01T03:35:39.506Z,100.00
2022-09-01T03:45:42.321Z,100.00
2022-09-01T03:55:47.513Z,100.00
2022-09-01T04:05:51.845Z,100.00
2022-09-01T04:15:55.304Z,100.00
2022-09-01T04:26:09.376Z,100.00
2022-09-01T04:36:20.003Z,100.00
2022-09-01T04:46:24.087Z,100.00
2022-09-01T04:56:27.139Z,100.00
2022-09-01T05:06:30.251Z,100.00
2022-09-01T05:16:36.848Z,100.00
2022-09-01T05:26:41.599Z,100.00
2022-09-01T05:36:46.464Z,100.00
2022-09-01T05:47:06.647Z,100.00
2022-09-01T05:57:33.921Z,100.00
2022-09-01T06:07:45.366Z,100.00
2022-09-01T06:17:50.228Z,100.00
2022-09-01T06:28:06.542Z,100.00
2022-09-01T06:38:12.576Z,100.00
2022-09-01T06:48:18.182Z,100.00
2022-09-01T06:58:22.742Z,100.00
2022-09-01T07:08:28.178Z,100.00
2022-09-01T07:18:34.778Z,98.54
2022-09-01T07:28:38.416Z,93.40
2022-09-01T08:00:33.765Z,85.56
2022-09-01T08:10:45.834Z,80.56
2022-09-01T08:20:50.924Z,81.43
2022-09-01T08:30:56.836Z,78.49
2022-09-01T08:52:02.491Z,76.11
2022-09-01T09:02:36.463Z,72.03
2022-09-01T09:13:04.252Z,70.65
2022-09-01T09:24:38.634Z,72.27
2022-09-01T09:34:52.068Z,72.43
2022-09-01T09:45:29.326Z,67.89
2022-09-01T09:55:39.254Z,70.70
2022-09-01T10:05:50.001Z,66.97
2022-09-01T10:16:11.297Z,64.35
2022-09-01T10:26:25.680Z,65.43
2022-09-01T10:36:42.196Z,64.97
2022-09-01T10:46:50.217Z,67.42
2022-09-01T10:57:11.992Z,66.34
2022-09-01T11:18:10.664Z,58.73
2022-09-01T11:28:25.913Z,62.02
2022-09-01T11:39:22.681Z,55.40
2022-09-01T11:49:37.774Z,57.50
2022-09-01T11:59:49.578Z,57.47
2022-09-01T12:09:57.417Z,53.18
2022-09-01T12:20:29.193Z,54.99
2022-09-01T12:30:47.594Z,54.22
2022-09-01T12:40:57.578Z,56.21
2022-09-01T12:51:05.013Z,54.50
2022-09-01T13:01:16.167Z,55.03
2022-09-01T13:11:23.715Z,52.61
2022-09-01T13:21:31.676Z,53.15
2022-09-01T13:32:16.011Z,48.56
2022-09-01T13:42:04.484Z,48.60
2022-09-01T13:52:12.898Z,47.96
2022-09-01T14:02:19.421Z,47.96
2022-09-01T14:12:23.226Z,42.87
2022-09-01T14:22:29.385Z,47.81
2022-09-01T14:32:32.012Z,44.02
2022-09-01T14:42:37.733Z,48.19
2022-09-01T14:52:40.609Z,48.81
2022-09-01T15:02:47.645Z,49.76
2022-09-01T15:12:51.611Z,47.64
2022-09-01T15:22:55.214Z,49.94
2022-09-01T15:32:58.653Z,52.19
2022-09-01T15:43:02.271Z,50.06
2022-09-01T15:53:09.362Z,52.62
2022-09-01T16:03:13.604Z,50.55
2022-09-01T16:13:16.327Z,53.63
2022-09-01T16:23:22.610Z,52.78
2022-09-01T16:33:25.785Z,52.99
2022-09-01T16:44:06.942Z,52.85
2022-09-01T16:54:24.840Z,53.60
2022-09-01T17:04:43.753Z,53.57
2022-09-01T17:14:56.021Z,55.04
2022-09-01T17:25:08.455Z,55.66
2022-09-01T17:35:24.132Z,56.54
2022-09-01T17:45:55.693Z,58.05
2022-09-01T17:56:10.116Z,58.45
2022-09-01T18:06:56.092Z,60.37
2022-09-01T18:17:04.313Z,61.00
2022-09-01T18:27:08.639Z,62.34
2022-09-01T18:37:18.394Z,65.99
2022-09-01T18:47:39.408Z,68.47
2022-09-01T18:58:06.918Z,70.58
2022-09-01T19:08:35.673Z,73.08
2022-09-01T19:18:44.975Z,75.31
2022-09-01T19:28:50.831Z,77.14
2022-09-01T19:38:54.653Z,78.27
2022-09-01T19:49:17.643Z,80.11
2022-09-01T19:59:38.507Z,81.91
2022-09-01T20:09:53.098Z,82.51
2022-09-01T20:20:10.583Z,83.50
2022-09-01T20:30:26.033Z,84.21
2022-09-01T20:40:37.423Z,85.67
2022-09-01T20:50:43.459Z,86.92
2022-09-01T21:00:54.367Z,87.81
2022-09-01T21:11:29.220Z,88.87
2022-09-01T21:21:43.301Z,89.63
2022-09-01T21:31:47.318Z,89.93
2022-09-01T21:41:50.082Z,90.96
2022-09-01T21:58:33.487Z,90.03
2022-09-01T22:08:36.094Z,90.03
2022-09-01T22:18:38.995Z,93.55
2022-09-01T22:28:42.237Z,93.49
2022-09-01T22:38:44.904Z,94.59
2022-09-01T22:48:47.821Z,95.42
2022-09-01T22:58:52.157Z,95.91
2022-09-01T23:08:56.270Z,96.79
2022-09-01T23:18:59.562Z,97.74
2022-09-01T23:29:03.011Z,98.22
2022-09-01T23:39:06.304Z,98.42
2022-09-01T23:49:09.989Z,99.22
2022-09-01T23:59:12.518Z,99.17
